KJAN/JAN METAR and TAF weather

Enter ICAO airport designator
Station Type Date Time Source
KJAN METAR 2020/06/02 17:54 UTC NOAA

KJAN 021754Z 17005KT 10SM FEW045 BKN250 31/19 A3011 RMK AO2 SLP190 T03060194 10311 20217 58006


Station Type Date Time Source
KJAN Decoded METAR 2020/06/02 17:54 UTC NOAA

Jackson, Jackson International Airport, MS, United States (KJAN) 32-19-11N 090-04-39W 89M
Jun 02, 2020 - 01:54 PM EDT / 2020.06.02 1754 UTC
Wind: from the S (170 degrees) at 6 MPH (5 KT):0
Visibility: 10 mile(s):0
Sky conditions: mostly cloudy
Temperature: 87.1 F (30.6 C)
Dew Point: 66.9 F (19.4 C)
Relative Humidity: 51%
Pressure (altimeter): 30.11 in. Hg (1019 hPa)
Pressure tendency: 0.02 inches (0.6 hPa) lower than three hours ago
ob: KJAN 021754Z 17005KT 10SM FEW045 BKN250 31/19 A3011 RMK AO2 SLP190 T03060194 10311 20217 58006
cycle: 18

Station Type Date Time Source
KJAN TAF 2020/06/02 18:30 UTC NOAA

TAF KJAN 021727Z 0218/0318 15007KT P6SM FEW045 BKN250
FM030200 15004KT P6SM BKN100

Example: see airport list